Time;durP1;ratioP1;P1;durP2;ratioP2;P2;SDS_P1;SDS_P2;PMS_P1;PMS_P2;Temp;Humidity;BMP_temperature;BMP_pressure;BME280_temperature;BME280_humidity;BME280_pressure;Samples;Min_cycle;Max_cycle;Signal;HPM_P1;HPM_P2
2021/04/16 00:03:08;;;;;;;7.03;3.33;;;;;;;;;;10286179;28;20327;-66
2021/04/16 00:08:12;;;;;;;7.40;3.43;;;;;;;;;;10285885;28;20233;-67
2021/04/16 00:13:15;;;;;;;6.40;3.10;;;;;;;;;;10277317;28;20197;-67
2021/04/16 00:18:19;;;;;;;6.97;3.50;;;;;;;;;;10282031;28;20278;-67
2021/04/16 00:23:21;;;;;;;7.33;3.60;;;;;;;;;;10282927;28;20290;-66
2021/04/16 00:28:23;;;;;;;7.67;3.47;;;;;;;;;;10279911;28;20640;-66
2021/04/16 00:33:25;;;;;;;6.83;3.70;;;;;;;;;;10281792;28;20242;-66
2021/04/16 00:38:27;;;;;;;7.27;3.67;;;;;;;;;;10283817;28;20666;-66
2021/04/16 00:43:30;;;;;;;6.40;3.33;;;;;;;;;;10285337;28;20218;-66
2021/04/16 00:48:34;;;;;;;7.03;3.50;;;;;;;;;;10274032;28;20296;-67
2021/04/16 00:53:36;;;;;;;6.63;3.50;;;;;;;;;;10281037;28;20199;-66
2021/04/16 00:58:38;;;;;;;7.50;3.43;;;;;;;;;;10271908;28;20463;-67
2021/04/16 01:03:39;;;;;;;7.23;3.33;;;;;;;;;;10274847;28;20310;-67
2021/04/16 01:08:42;;;;;;;6.73;3.17;;;;;;;;;;10277913;28;20239;-67
2021/04/16 01:13:45;;;;;;;6.00;3.40;;;;;;;;;;10285201;28;20744;-66
2021/04/16 01:18:48;;;;;;;6.90;3.60;;;;;;;;;;10283907;28;20207;-65
2021/04/16 01:23:54;;;;;;;8.23;3.33;;;;;;;;;;10279919;28;20550;-66
2021/04/16 01:28:56;;;;;;;8.23;3.87;;;;;;;;;;10282295;28;20278;-68
2021/04/16 01:33:58;;;;;;;6.43;3.33;;;;;;;;;;10283987;28;20199;-67
2021/04/16 01:39:01;;;;;;;6.60;3.60;;;;;;;;;;10279431;28;20302;-67
2021/04/16 01:44:05;;;;;;;6.83;3.43;;;;;;;;;;10280358;28;20211;-67
2021/04/16 01:49:07;;;;;;;7.13;3.67;;;;;;;;;;10283073;28;20207;-66
2021/04/16 01:54:10;;;;;;;7.10;3.27;;;;;;;;;;10277946;28;20223;-66
2021/04/16 01:59:13;;;;;;;8.93;3.93;;;;;;;;;;10282153;28;20215;-66
2021/04/16 02:04:16;;;;;;;6.23;3.30;;;;;;;;;;10280620;28;20303;-67
2021/04/16 02:09:20;;;;;;;7.60;3.80;;;;;;;;;;10281137;28;20773;-65
2021/04/16 02:14:23;;;;;;;8.13;3.70;;;;;;;;;;10280122;28;20192;-67
2021/04/16 02:19:25;;;;;;;8.20;3.70;;;;;;;;;;10278081;28;20249;-67
2021/04/16 02:24:27;;;;;;;7.80;4.00;;;;;;;;;;10279663;28;20321;-68
2021/04/16 02:29:29;;;;;;;6.80;3.33;;;;;;;;;;10274134;28;20231;-66
2021/04/16 02:34:31;;;;;;;8.07;3.60;;;;;;;;;;10282780;28;20262;-67
2021/04/16 02:39:32;;;;;;;6.53;3.40;;;;;;;;;;10281384;28;20816;-66
2021/04/16 02:44:35;;;;;;;7.93;3.80;;;;;;;;;;10288299;28;20572;-66
2021/04/16 02:49:37;;;;;;;7.13;3.73;;;;;;;;;;10290100;28;20711;-67
2021/04/16 02:54:38;;;;;;;7.63;3.53;;;;;;;;;;10282954;28;20246;-67
2021/04/16 02:59:41;;;;;;;8.23;3.97;;;;;;;;;;10288446;28;20298;-67
2021/04/16 03:04:42;;;;;;;6.63;3.30;;;;;;;;;;10288009;28;20704;-67
2021/04/16 03:09:44;;;;;;;8.20;3.90;;;;;;;;;;10288997;28;20279;-66
2021/04/16 03:14:46;;;;;;;8.97;4.10;;;;;;;;;;10285776;28;20655;-66
2021/04/16 03:19:47;;;;;;;7.73;3.87;;;;;;;;;;10286896;28;20284;-67
2021/04/16 03:24:49;;;;;;;8.43;4.20;;;;;;;;;;10289760;28;20672;-66
2021/04/16 03:29:51;;;;;;;8.70;3.97;;;;;;;;;;10286283;28;20663;-66
2021/04/16 03:34:55;;;;;;;6.80;3.97;;;;;;;;;;10287078;28;20203;-66
2021/04/16 03:39:56;;;;;;;7.73;4.17;;;;;;;;;;10284325;28;20303;-66
2021/04/16 03:44:59;;;;;;;9.47;4.30;;;;;;;;;;10285384;28;20281;-66
2021/04/16 03:50:01;;;;;;;9.53;4.70;;;;;;;;;;10284315;28;20280;-68
2021/04/16 03:55:03;;;;;;;8.90;4.27;;;;;;;;;;10283252;28;20204;-67
2021/04/16 04:00:08;;;;;;;9.87;5.17;;;;;;;;;;10284329;28;20220;-66
2021/04/16 04:05:09;;;;;;;8.57;4.27;;;;;;;;;;10278558;28;20282;-66
2021/04/16 04:10:12;;;;;;;9.33;4.80;;;;;;;;;;10286857;28;20219;-67
2021/04/16 04:15:15;;;;;;;9.27;4.57;;;;;;;;;;10282408;28;20270;-68
2021/04/16 04:20:40;;;;;;;10.60;5.67;;;;;;;;;;10280288;28;20588;-66
2021/04/16 04:26:02;;;;;;;13.23;5.70;;;;;;;;;;10285936;28;20226;-67
2021/04/16 04:31:07;;;;;;;10.73;6.03;;;;;;;;;;10283377;28;20247;-67
2021/04/16 04:36:09;;;;;;;10.87;5.70;;;;;;;;;;10286855;28;20676;-68
2021/04/16 04:41:15;;;;;;;12.77;6.07;;;;;;;;;;10281008;28;20216;-67
2021/04/16 04:46:17;;;;;;;10.57;5.93;;;;;;;;;;10279055;28;20216;-66
2021/04/16 04:51:19;;;;;;;12.17;6.27;;;;;;;;;;10278948;28;20222;-66
2021/04/16 04:56:21;;;;;;;11.40;6.30;;;;;;;;;;10277311;28;20529;-66
2021/04/16 05:01:23;;;;;;;10.37;6.03;;;;;;;;;;10277498;28;20672;-67
2021/04/16 05:06:25;;;;;;;10.47;6.03;;;;;;;;;;10272535;28;20220;-67
2021/04/16 05:11:26;;;;;;;14.10;6.37;;;;;;;;;;10270001;28;20295;-68
2021/04/16 05:16:29;;;;;;;10.97;6.27;;;;;;;;;;10271464;28;20298;-67
2021/04/16 05:21:33;;;;;;;10.77;6.10;;;;;;;;;;10269412;28;20224;-66
2021/04/16 05:26:35;;;;;;;17.20;6.87;;;;;;;;;;10275007;28;20212;-67
2021/04/16 05:31:37;;;;;;;11.50;6.70;;;;;;;;;;10276534;28;20232;-66
2021/04/16 05:36:39;;;;;;;12.63;6.57;;;;;;;;;;10270528;28;20623;-68
2021/04/16 05:41:41;;;;;;;10.83;6.17;;;;;;;;;;10283715;28;20575;-65
2021/04/16 05:46:43;;;;;;;11.23;6.27;;;;;;;;;;10275579;28;20631;-66
2021/04/16 05:51:45;;;;;;;11.43;6.40;;;;;;;;;;10270984;28;20565;-66
2021/04/16 05:56:47;;;;;;;12.20;7.07;;;;;;;;;;10271135;28;20195;-66
2021/04/16 06:01:49;;;;;;;13.73;6.90;;;;;;;;;;10269965;28;20228;-67
2021/04/16 06:06:51;;;;;;;11.27;6.30;;;;;;;;;;10265916;28;20228;-67
2021/04/16 06:11:52;;;;;;;13.77;6.93;;;;;;;;;;10265372;28;20211;-67
2021/04/16 06:16:55;;;;;;;12.17;6.73;;;;;;;;;;10266459;28;20200;-67
2021/04/16 06:21:56;;;;;;;11.67;6.30;;;;;;;;;;10276005;28;20560;-67
2021/04/16 06:26:58;;;;;;;9.70;5.83;;;;;;;;;;10266217;28;20231;-67
2021/04/16 06:32:05;;;;;;;12.40;6.40;;;;;;;;;;10267332;28;20227;-67
2021/04/16 06:37:08;;;;;;;10.77;6.07;;;;;;;;;;10268189;28;20192;-67
2021/04/16 06:42:14;;;;;;;11.57;6.43;;;;;;;;;;10270021;28;20604;-67
2021/04/16 06:47:18;;;;;;;10.97;5.97;;;;;;;;;;10263784;28;20232;-68
2021/04/16 06:52:22;;;;;;;16.77;5.93;;;;;;;;;;10265875;28;20215;-67
2021/04/16 06:57:34;;;;;;;9.43;5.53;;;;;;;;;;10267771;28;20251;-67
2021/04/16 07:02:38;;;;;;;9.73;5.50;;;;;;;;;;10285913;28;20223;-67
2021/04/16 07:07:42;;;;;;;11.00;5.77;;;;;;;;;;10269300;28;20648;-68
2021/04/16 07:12:44;;;;;;;10.97;5.10;;;;;;;;;;10265062;28;20202;-69
2021/04/16 07:17:47;;;;;;;9.60;4.90;;;;;;;;;;10267807;28;20275;-69
2021/04/16 07:22:50;;;;;;;7.80;4.90;;;;;;;;;;10263659;28;20549;-69
2021/04/16 07:27:53;;;;;;;8.00;4.90;;;;;;;;;;10273529;28;20726;-69
2021/04/16 07:32:56;;;;;;;7.37;5.13;;;;;;;;;;10272450;28;20239;-70
2021/04/16 07:38:03;;;;;;;9.60;5.00;;;;;;;;;;10273920;28;20235;-69
2021/04/16 07:43:10;;;;;;;7.90;5.40;;;;;;;;;;10263351;28;20204;-70
2021/04/16 07:48:23;;;;;;;9.20;5.40;;;;;;;;;;10277823;28;20223;-69
2021/04/16 07:53:30;;;;;;;8.07;5.10;;;;;;;;;;10273906;28;20199;-68
2021/04/16 07:58:33;;;;;;;8.27;5.40;;;;;;;;;;10279525;28;20295;-67
2021/04/16 08:03:43;;;;;;;8.63;5.40;;;;;;;;;;10281487;28;20668;-68
2021/04/16 08:08:45;;;;;;;7.33;4.80;;;;;;;;;;10277732;28;20219;-68
2021/04/16 08:13:55;;;;;;;6.80;4.23;;;;;;;;;;10273801;28;20231;-65
2021/04/16 08:19:10;;;;;;;17.13;10.67;;;;;;;;;;10281277;28;20273;-67
2021/04/16 08:24:23;;;;;;;8.03;4.60;;;;;;;;;;10276948;28;20231;-68
2021/04/16 08:29:27;;;;;;;6.13;3.83;;;;;;;;;;10269984;28;20208;-67
2021/04/16 08:34:36;;;;;;;8.03;4.67;;;;;;;;;;10271081;28;20220;-70
2021/04/16 08:39:41;;;;;;;6.93;4.50;;;;;;;;;;10279300;28;20219;-68
2021/04/16 08:44:45;;;;;;;7.35;4.90;;;;;;;;;;10275395;28;20196;-66
2021/04/16 08:49:47;;;;;;;8.35;5.07;;;;;;;;;;10281577;28;20220;-66
2021/04/16 08:54:51;;;;;;;6.90;5.20;;;;;;;;;;10272381;28;20196;-66
2021/04/16 08:59:54;;;;;;;6.53;4.82;;;;;;;;;;10278627;28;20241;-68
2021/04/16 09:05:03;;;;;;;6.82;4.40;;;;;;;;;;10281416;28;20306;-66
2021/04/16 09:10:08;;;;;;;6.15;4.32;;;;;;;;;;10279131;28;20220;-66
2021/04/16 09:15:29;;;;;;;19.65;5.28;;;;;;;;;;10275519;28;20207;-67
2021/04/16 09:20:45;;;;;;;5.90;4.32;;;;;;;;;;10279179;28;20223;-66
2021/04/16 09:25:49;;;;;;;6.03;4.40;;;;;;;;;;10273799;28;20191;-67
2021/04/16 09:30:52;;;;;;;6.63;4.45;;;;;;;;;;10283623;28;20223;-66
2021/04/16 09:35:57;;;;;;;6.25;3.80;;;;;;;;;;10283584;28;20207;-68
2021/04/16 09:41:24;;;;;;;4.22;3.75;;;;;;;;;;10281431;28;20226;-65
2021/04/16 09:46:45;;;;;;;7.13;4.50;;;;;;;;;;10262741;28;20575;-69
2021/04/16 09:51:47;;;;;;;6.53;4.55;;;;;;;;;;10276960;28;20635;-66
2021/04/16 09:57:03;;;;;;;6.00;4.22;;;;;;;;;;10281913;28;20226;-67
2021/04/16 10:02:29;;;;;;;6.90;4.80;;;;;;;;;;10272916;28;20221;-67
2021/04/16 10:07:40;;;;;;;5.45;3.90;;;;;;;;;;10274817;28;20206;-69
2021/04/16 10:12:42;;;;;;;5.45;4.18;;;;;;;;;;10275453;28;20280;-68
2021/04/16 10:17:53;;;;;;;5.18;3.70;;;;;;;;;;10280476;28;20639;-68
2021/04/16 10:23:01;;;;;;;5.25;3.60;;;;;;;;;;10273957;28;20195;-69
2021/04/16 12:38:13;;;;;;;6.55;4.60;;;;;;;;;;10281151;28;20215;-66
2021/04/16 12:43:14;;;;;;;7.90;5.05;;;;;;;;;;10279852;28;20601;-68
2021/04/16 12:48:18;;;;;;;7.28;4.40;;;;;;;;;;10283499;28;20716;-68
2021/04/16 12:53:20;;;;;;;7.57;4.68;;;;;;;;;;10278822;28;20282;-65
2021/04/16 12:58:23;;;;;;;6.13;4.47;;;;;;;;;;10281490;28;20262;-68
2021/04/16 13:03:29;;;;;;;6.78;4.50;;;;;;;;;;10278642;28;20259;-65
2021/04/16 13:08:31;;;;;;;6.90;4.60;;;;;;;;;;10280743;28;20667;-67
2021/04/16 13:13:33;;;;;;;6.60;4.33;;;;;;;;;;10282781;28;20481;-66
2021/04/16 13:18:39;;;;;;;7.20;4.70;;;;;;;;;;10275557;28;20270;-67
2021/04/16 13:23:42;;;;;;;7.53;5.03;;;;;;;;;;10272254;28;20605;-68
2021/04/16 13:28:45;;;;;;;7.45;4.25;;;;;;;;;;10283654;28;20218;-67
2021/04/16 13:33:48;;;;;;;6.60;4.13;;;;;;;;;;10280666;28;20219;-67
2021/04/16 13:38:50;;;;;;;7.10;4.17;;;;;;;;;;10273342;28;20747;-67
2021/04/16 13:43:52;;;;;;;7.93;5.00;;;;;;;;;;10279022;28;20695;-67
2021/04/16 13:48:55;;;;;;;8.90;4.70;;;;;;;;;;10280661;28;20266;-66
2021/04/16 13:53:57;;;;;;;7.93;4.60;;;;;;;;;;10279416;28;20258;-66
2021/04/16 13:58:58;;;;;;;5.70;3.90;;;;;;;;;;10278113;28;20223;-65
2021/04/16 14:04:02;;;;;;;6.67;3.80;;;;;;;;;;10280304;28;20198;-66
2021/04/16 14:09:06;;;;;;;6.83;4.23;;;;;;;;;;10275752;28;20223;-67
2021/04/16 14:14:09;;;;;;;6.53;4.00;;;;;;;;;;10273842;28;20191;-66
2021/04/16 14:19:14;;;;;;;6.80;4.20;;;;;;;;;;10277300;28;20227;-67
2021/04/16 14:24:16;;;;;;;6.83;4.20;;;;;;;;;;10270426;28;20251;-69
2021/04/16 14:29:17;;;;;;;8.40;4.30;;;;;;;;;;10268871;28;20224;-68
2021/04/16 14:34:22;;;;;;;7.30;4.10;;;;;;;;;;10272722;28;20192;-68
2021/04/16 14:39:24;;;;;;;7.43;3.83;;;;;;;;;;10268834;28;20646;-67
2021/04/16 14:44:26;;;;;;;6.60;4.13;;;;;;;;;;10278528;28;20765;-67
2021/04/16 14:49:30;;;;;;;7.13;4.33;;;;;;;;;;10269021;28;20261;-67
2021/04/16 14:54:32;;;;;;;6.87;4.03;;;;;;;;;;10282380;28;20206;-67
2021/04/16 14:59:35;;;;;;;6.80;4.13;;;;;;;;;;10274098;28;20219;-71
2021/04/16 15:04:38;;;;;;;6.13;3.87;;;;;;;;;;10269727;28;20215;-67
2021/04/16 15:09:45;;;;;;;6.33;3.87;;;;;;;;;;10273521;28;20299;-67
2021/04/16 15:14:47;;;;;;;7.07;4.03;;;;;;;;;;10278491;28;20358;-66
2021/04/16 15:19:51;;;;;;;6.80;4.17;;;;;;;;;;10272236;28;20651;-67
2021/04/16 15:24:53;;;;;;;7.97;3.90;;;;;;;;;;10279109;28;20629;-67
2021/04/16 15:29:56;;;;;;;6.07;3.60;;;;;;;;;;10277932;28;20585;-67
2021/04/16 15:50:35;;;;;;;7.70;4.53;;;;;;;;;;10284231;28;20347;-70
2021/04/16 15:55:37;;;;;;;7.40;4.00;;;;;;;;;;10283428;28;20367;-68
2021/04/16 16:00:41;;;;;;;7.57;3.93;;;;;;;;;;10280428;28;20216;-67
2021/04/16 16:05:44;;;;;;;8.60;4.00;;;;;;;;;;10282140;28;20204;-68
2021/04/16 16:10:48;;;;;;;6.70;3.90;;;;;;;;;;10277278;28;20761;-68
2021/04/16 16:15:50;;;;;;;7.83;3.77;;;;;;;;;;10282518;28;20286;-67
2021/04/16 16:20:54;;;;;;;7.70;4.13;;;;;;;;;;10286399;28;20226;-70
2021/04/16 16:25:57;;;;;;;7.80;4.10;;;;;;;;;;10283530;28;20191;-67
2021/04/16 16:31:06;;;;;;;7.40;4.03;;;;;;;;;;10276868;28;20255;-69
2021/04/16 16:36:09;;;;;;;6.60;3.70;;;;;;;;;;10275431;28;20287;-68
2021/04/16 16:41:11;;;;;;;8.17;4.20;;;;;;;;;;10273087;28;20707;-69
2021/04/16 16:46:15;;;;;;;10.00;5.00;;;;;;;;;;10260147;28;20203;-69
2021/04/16 16:51:18;;;;;;;7.80;4.17;;;;;;;;;;10289273;28;20716;-69
2021/04/16 16:56:22;;;;;;;6.27;3.73;;;;;;;;;;10267746;28;20208;-68
2021/04/16 17:01:25;;;;;;;7.20;3.97;;;;;;;;;;10263945;28;20219;-69
2021/04/16 17:06:33;;;;;;;11.03;4.97;;;;;;;;;;10267104;28;20207;-69
2021/04/16 17:11:37;;;;;;;7.47;4.13;;;;;;;;;;10266940;28;20231;-68
2021/04/16 17:16:39;;;;;;;9.23;4.10;;;;;;;;;;10278759;28;20200;-69
2021/04/16 17:21:43;;;;;;;7.33;4.30;;;;;;;;;;10262830;28;20739;-68
2021/04/16 17:26:46;;;;;;;8.97;4.93;;;;;;;;;;10269936;28;20668;-68
2021/04/16 17:31:48;;;;;;;9.03;5.07;;;;;;;;;;10255806;28;20224;-67
2021/04/16 17:36:51;;;;;;;8.90;5.23;;;;;;;;;;10268942;28;20196;-68
2021/04/16 17:41:54;;;;;;;8.73;4.90;;;;;;;;;;10271288;28;20609;-69
2021/04/16 17:46:56;;;;;;;7.97;4.53;;;;;;;;;;10271419;28;20188;-68
2021/04/16 17:51:59;;;;;;;7.80;4.50;;;;;;;;;;10278210;28;20302;-67
2021/04/16 17:57:00;;;;;;;8.63;4.80;;;;;;;;;;10262235;28;20274;-68
2021/04/16 18:02:02;;;;;;;9.63;5.03;;;;;;;;;;10289408;28;20228;-68
2021/04/16 18:07:06;;;;;;;7.97;4.27;;;;;;;;;;10278107;28;20227;-69
2021/04/16 18:12:08;;;;;;;7.10;4.37;;;;;;;;;;10277022;28;20220;-67
2021/04/16 18:17:10;;;;;;;9.60;5.20;;;;;;;;;;10282416;28;20211;-69
2021/04/16 18:22:21;;;;;;;8.80;4.93;;;;;;;;;;10262926;28;20235;-69
2021/04/16 18:27:24;;;;;;;8.27;4.67;;;;;;;;;;10276026;28;20583;-68
2021/04/16 18:32:26;;;;;;;8.20;4.60;;;;;;;;;;10263221;28;20242;-67
2021/04/16 18:37:29;;;;;;;7.90;4.73;;;;;;;;;;10268478;28;20291;-68
2021/04/16 18:42:31;;;;;;;8.37;4.63;;;;;;;;;;10265281;28;20274;-67
2021/04/16 18:47:32;;;;;;;7.93;4.43;;;;;;;;;;10262813;28;20211;-68
2021/04/16 18:52:36;;;;;;;8.30;4.60;;;;;;;;;;10267567;28;20611;-66
2021/04/16 18:57:38;;;;;;;9.00;4.57;;;;;;;;;;10279228;28;20601;-67
2021/04/16 19:02:40;;;;;;;8.40;4.80;;;;;;;;;;10285650;28;20207;-66
2021/04/16 19:07:42;;;;;;;9.20;4.80;;;;;;;;;;10287652;28;20238;-66
2021/04/16 19:12:44;;;;;;;11.77;6.07;;;;;;;;;;10289482;28;20221;-66
2021/04/16 19:17:46;;;;;;;8.70;4.40;;;;;;;;;;10277490;28;20215;-66
2021/04/16 19:22:51;;;;;;;9.57;5.43;;;;;;;;;;10290104;28;20583;-68
2021/04/16 19:27:53;;;;;;;9.03;4.90;;;;;;;;;;10290194;28;20271;-70
2021/04/16 19:32:54;;;;;;;10.40;5.60;;;;;;;;;;10290038;28;20210;-68
2021/04/16 19:37:58;;;;;;;9.63;5.07;;;;;;;;;;10286968;28;21632;-67
2021/04/16 19:43:00;;;;;;;10.13;5.27;;;;;;;;;;10293857;28;20235;-67
2021/04/16 19:59:21;;;;;;;9.67;5.37;;;;;;;;;;10282870;28;20231;-70
2021/04/16 20:10:45;;;;;;;10.50;5.53;;;;;;;;;;10250882;28;20227;-69
2021/04/16 20:20:59;;;;;;;11.13;5.80;;;;;;;;;;10238621;28;20248;-66
2021/04/16 20:26:04;;;;;;;10.47;5.80;;;;;;;;;;10265244;28;20683;-67
2021/04/16 20:31:05;;;;;;;10.30;5.37;;;;;;;;;;10280018;28;20946;-68
2021/04/16 20:36:09;;;;;;;9.63;5.30;;;;;;;;;;10287437;28;20230;-67
2021/04/16 20:41:13;;;;;;;10.23;6.38;;;;;;;;;;10285941;28;20515;-67
2021/04/16 20:46:17;;;;;;;9.87;5.40;;;;;;;;;;10285651;28;20195;-68
2021/04/16 20:51:21;;;;;;;9.27;5.30;;;;;;;;;;10281641;28;20227;-68
2021/04/16 20:56:25;;;;;;;9.77;4.83;;;;;;;;;;10296635;28;20223;-68
2021/04/16 21:01:26;;;;;;;10.50;5.80;;;;;;;;;;10283010;28;20220;-68
2021/04/16 21:06:30;;;;;;;10.03;5.73;;;;;;;;;;10281849;28;20203;-68
2021/04/16 21:11:34;;;;;;;10.63;6.68;;;;;;;;;;10273192;28;20450;-68
2021/04/16 21:16:36;;;;;;;11.93;6.17;;;;;;;;;;10271323;28;20234;-68
2021/04/16 21:21:39;;;;;;;11.23;5.70;;;;;;;;;;10275331;28;20652;-68
2021/04/16 21:26:43;;;;;;;10.53;5.70;;;;;;;;;;10270405;28;20243;-67
2021/04/16 21:31:45;;;;;;;9.93;5.63;;;;;;;;;;10269973;28;20306;-68
2021/04/16 21:36:48;;;;;;;10.60;5.57;;;;;;;;;;10275875;28;20227;-67
2021/04/16 21:41:51;;;;;;;10.67;5.87;;;;;;;;;;10270592;28;20283;-68
2021/04/16 21:46:53;;;;;;;10.17;5.40;;;;;;;;;;10271288;28;20219;-67
2021/04/16 21:51:57;;;;;;;11.63;5.60;;;;;;;;;;10278604;28;20223;-68
2021/04/16 21:57:00;;;;;;;12.13;5.93;;;;;;;;;;10269717;28;20275;-67
2021/04/16 22:02:06;;;;;;;9.80;5.60;;;;;;;;;;10280879;28;20286;-67
2021/04/16 22:07:10;;;;;;;11.97;5.83;;;;;;;;;;10272235;28;20593;-67
2021/04/16 22:12:40;;;;;;;10.30;5.10;;;;;;;;;;10273872;28;21701;-67
2021/04/16 22:17:42;;;;;;;12.10;5.67;;;;;;;;;;10275173;28;20279;-67
2021/04/16 22:22:46;;;;;;;10.30;5.77;;;;;;;;;;10280829;28;20592;-67
2021/04/16 22:27:50;;;;;;;11.53;5.77;;;;;;;;;;10281511;28;20361;-68
2021/04/16 22:32:52;;;;;;;10.33;5.67;;;;;;;;;;10278397;28;20282;-67
2021/04/16 22:37:54;;;;;;;10.83;5.90;;;;;;;;;;10272574;28;20191;-69
2021/04/16 22:43:00;;;;;;;10.30;5.70;;;;;;;;;;10274797;28;20890;-67
2021/04/16 22:48:10;;;;;;;10.20;5.27;;;;;;;;;;10278430;28;20290;-67
2021/04/16 22:53:20;;;;;;;10.17;5.47;;;;;;;;;;10277262;28;20204;-68
2021/04/16 22:58:23;;;;;;;11.10;5.67;;;;;;;;;;10284067;28;20238;-68
2021/04/16 23:03:26;;;;;;;9.90;5.00;;;;;;;;;;10284242;28;20624;-68
2021/04/16 23:08:28;;;;;;;10.80;5.40;;;;;;;;;;10278952;28;20575;-66
2021/04/16 23:13:32;;;;;;;10.50;5.60;;;;;;;;;;10281726;28;20267;-66
2021/04/16 23:18:34;;;;;;;11.03;5.50;;;;;;;;;;10283139;28;20367;-67
2021/04/16 23:23:41;;;;;;;10.07;5.20;;;;;;;;;;10276935;28;20196;-67
2021/04/16 23:28:44;;;;;;;10.40;5.53;;;;;;;;;;10286311;28;20231;-66
2021/04/16 23:34:04;;;;;;;10.33;5.57;;;;;;;;;;10287412;28;20646;-67
2021/04/16 23:39:07;;;;;;;11.10;5.90;;;;;;;;;;10283844;28;20599;-67
2021/04/16 23:44:12;;;;;;;11.97;5.90;;;;;;;;;;10281259;28;20233;-67
2021/04/16 23:49:15;;;;;;;11.70;6.33;;;;;;;;;;10282357;28;20631;-69
2021/04/16 23:54:17;;;;;;;11.07;5.77;;;;;;;;;;10287793;28;20624;-67
2021/04/16 23:59:19;;;;;;;11.97;6.07;;;;;;;;;;10274249;28;20764;-68
